sensor_id;sensor_type;location;lat;lon;timestamp;P1;durP1;ratioP1;P2;durP2;ratioP2
66633;SDS011;53546;52.184;5.596;2023-02-13T00:02:05;5.47;;;4.07;;
66633;SDS011;53546;52.184;5.596;2023-02-13T00:04:30;6.05;;;4.40;;
66633;SDS011;53546;52.184;5.596;2023-02-13T00:06:56;5.20;;;4.43;;
66633;SDS011;53546;52.184;5.596;2023-02-13T00:09:21;4.80;;;4.22;;
66633;SDS011;53546;52.184;5.596;2023-02-13T00:11:46;5.20;;;4.70;;
66633;SDS011;53546;52.184;5.596;2023-02-13T00:14:12;4.95;;;4.10;;
66633;SDS011;53546;52.184;5.596;2023-02-13T00:16:37;5.57;;;4.38;;
66633;SDS011;53546;52.184;5.596;2023-02-13T00:19:03;5.03;;;4.45;;
66633;SDS011;53546;52.184;5.596;2023-02-13T00:21:28;5.75;;;4.55;;
66633;SDS011;53546;52.184;5.596;2023-02-13T00:23:53;5.03;;;4.53;;
66633;SDS011;53546;52.184;5.596;2023-02-13T00:26:19;6.28;;;4.47;;
66633;SDS011;53546;52.184;5.596;2023-02-13T00:28:44;5.72;;;4.72;;
66633;SDS011;53546;52.184;5.596;2023-02-13T00:31:11;5.30;;;4.50;;
66633;SDS011;53546;52.184;5.596;2023-02-13T00:33:38;6.00;;;4.53;;
66633;SDS011;53546;52.184;5.596;2023-02-13T00:36:07;4.70;;;4.00;;
66633;SDS011;53546;52.184;5.596;2023-02-13T00:38:35;4.35;;;3.63;;
66633;SDS011;53546;52.184;5.596;2023-02-13T00:41:01;4.65;;;4.15;;
66633;SDS011;53546;52.184;5.596;2023-02-13T00:43:27;5.60;;;4.20;;
66633;SDS011;53546;52.184;5.596;2023-02-13T00:45:53;5.05;;;4.30;;
66633;SDS011;53546;52.184;5.596;2023-02-13T00:48:18;6.10;;;4.50;;
66633;SDS011;53546;52.184;5.596;2023-02-13T00:50:45;6.25;;;4.60;;
66633;SDS011;53546;52.184;5.596;2023-02-13T00:53:11;5.03;;;4.43;;
66633;SDS011;53546;52.184;5.596;2023-02-13T00:55:36;6.13;;;4.20;;
66633;SDS011;53546;52.184;5.596;2023-02-13T00:58:01;7.00;;;4.68;;
66633;SDS011;53546;52.184;5.596;2023-02-13T01:00:27;5.68;;;4.03;;
66633;SDS011;53546;52.184;5.596;2023-02-13T01:02:52;5.57;;;3.78;;
66633;SDS011;53546;52.184;5.596;2023-02-13T01:05:18;5.47;;;4.00;;
66633;SDS011;53546;52.184;5.596;2023-02-13T01:07:43;5.35;;;4.40;;
66633;SDS011;53546;52.184;5.596;2023-02-13T01:10:09;4.57;;;3.95;;
66633;SDS011;53546;52.184;5.596;2023-02-13T01:12:34;4.55;;;3.95;;
66633;SDS011;53546;52.184;5.596;2023-02-13T01:15:00;5.35;;;4.05;;
66633;SDS011;53546;52.184;5.596;2023-02-13T01:17:25;5.65;;;4.60;;
66633;SDS011;53546;52.184;5.596;2023-02-13T01:19:50;5.90;;;4.13;;
66633;SDS011;53546;52.184;5.596;2023-02-13T01:22:16;5.30;;;4.25;;
66633;SDS011;53546;52.184;5.596;2023-02-13T01:24:41;6.18;;;4.43;;
66633;SDS011;53546;52.184;5.596;2023-02-13T01:27:06;4.93;;;4.43;;
66633;SDS011;53546;52.184;5.596;2023-02-13T01:29:32;5.70;;;4.50;;
66633;SDS011;53546;52.184;5.596;2023-02-13T01:31:57;6.32;;;4.60;;
66633;SDS011;53546;52.184;5.596;2023-02-13T01:34:23;6.32;;;4.53;;
66633;SDS011;53546;52.184;5.596;2023-02-13T01:36:48;5.57;;;4.40;;
66633;SDS011;53546;52.184;5.596;2023-02-13T01:39:13;5.65;;;4.38;;
66633;SDS011;53546;52.184;5.596;2023-02-13T01:41:39;6.70;;;4.43;;
66633;SDS011;53546;52.184;5.596;2023-02-13T01:47:08;4.72;;;4.10;;
66633;SDS011;53546;52.184;5.596;2023-02-13T01:49:34;6.00;;;4.70;;
66633;SDS011;53546;52.184;5.596;2023-02-13T01:52:00;5.10;;;4.35;;
66633;SDS011;53546;52.184;5.596;2023-02-13T01:54:27;5.55;;;4.43;;
66633;SDS011;53546;52.184;5.596;2023-02-13T01:56:58;6.15;;;4.22;;
66633;SDS011;53546;52.184;5.596;2023-02-13T01:59:28;5.00;;;4.45;;
66633;SDS011;53546;52.184;5.596;2023-02-13T02:01:57;4.78;;;4.18;;
66633;SDS011;53546;52.184;5.596;2023-02-13T02:04:28;6.38;;;4.35;;
66633;SDS011;53546;52.184;5.596;2023-02-13T02:06:57;5.70;;;4.25;;
66633;SDS011;53546;52.184;5.596;2023-02-13T02:09:28;4.95;;;4.13;;
66633;SDS011;53546;52.184;5.596;2023-02-13T02:11:57;4.78;;;4.10;;
66633;SDS011;53546;52.184;5.596;2023-02-13T02:14:26;6.05;;;4.10;;
66633;SDS011;53546;52.184;5.596;2023-02-13T02:16:51;5.10;;;3.92;;
66633;SDS011;53546;52.184;5.596;2023-02-13T02:30:45;5.93;;;4.35;;
66633;SDS011;53546;52.184;5.596;2023-02-13T02:33:26;4.47;;;4.03;;
66633;SDS011;53546;52.184;5.596;2023-02-13T02:39:37;7.20;;;4.50;;
66633;SDS011;53546;52.184;5.596;2023-02-13T02:45:11;5.07;;;4.50;;
66633;SDS011;53546;52.184;5.596;2023-02-13T02:47:43;4.60;;;4.18;;
66633;SDS011;53546;52.184;5.596;2023-02-13T02:50:55;4.95;;;4.35;;
66633;SDS011;53546;52.184;5.596;2023-02-13T03:01:58;4.50;;;3.97;;
66633;SDS011;53546;52.184;5.596;2023-02-13T03:04:45;6.80;;;4.25;;
66633;SDS011;53546;52.184;5.596;2023-02-13T03:07:30;5.75;;;4.38;;
66633;SDS011;53546;52.184;5.596;2023-02-13T03:10:00;5.38;;;4.50;;
66633;SDS011;53546;52.184;5.596;2023-02-13T03:12:47;5.70;;;4.60;;
66633;SDS011;53546;52.184;5.596;2023-02-13T03:15:38;4.88;;;4.13;;
66633;SDS011;53546;52.184;5.596;2023-02-13T03:18:24;6.90;;;4.60;;
66633;SDS011;53546;52.184;5.596;2023-02-13T03:21:11;5.10;;;4.10;;
66633;SDS011;53546;52.184;5.596;2023-02-13T03:24:19;5.22;;;4.20;;
66633;SDS011;53546;52.184;5.596;2023-02-13T03:29:20;6.13;;;4.43;;
66633;SDS011;53546;52.184;5.596;2023-02-13T03:32:28;6.35;;;4.35;;
66633;SDS011;53546;52.184;5.596;2023-02-13T03:35:22;5.72;;;4.43;;
66633;SDS011;53546;52.184;5.596;2023-02-13T03:38:19;4.82;;;4.30;;
66633;SDS011;53546;52.184;5.596;2023-02-13T03:40:50;6.32;;;4.38;;
66633;SDS011;53546;52.184;5.596;2023-02-13T03:46:26;6.23;;;4.47;;
66633;SDS011;53546;52.184;5.596;2023-02-13T03:48:54;6.00;;;4.35;;
66633;SDS011;53546;52.184;5.596;2023-02-13T03:51:42;5.03;;;4.32;;
66633;SDS011;53546;52.184;5.596;2023-02-13T03:54:15;5.88;;;4.35;;
66633;SDS011;53546;52.184;5.596;2023-02-13T03:56:44;4.68;;;4.13;;
66633;SDS011;53546;52.184;5.596;2023-02-13T03:59:30;5.40;;;4.47;;
66633;SDS011;53546;52.184;5.596;2023-02-13T04:01:59;4.78;;;4.03;;
66633;SDS011;53546;52.184;5.596;2023-02-13T04:05:08;5.70;;;4.70;;
66633;SDS011;53546;52.184;5.596;2023-02-13T04:07:16;5.72;;;4.40;;
66633;SDS011;53546;52.184;5.596;2023-02-13T04:09:57;4.70;;;3.80;;
66633;SDS011;53546;52.184;5.596;2023-02-13T04:12:25;5.65;;;4.57;;
66633;SDS011;53546;52.184;5.596;2023-02-13T04:15:17;6.72;;;4.18;;
66633;SDS011;53546;52.184;5.596;2023-02-13T04:20:13;7.13;;;4.20;;
66633;SDS011;53546;52.184;5.596;2023-02-13T04:22:42;4.78;;;4.22;;
66633;SDS011;53546;52.184;5.596;2023-02-13T04:25:11;5.28;;;4.68;;
66633;SDS011;53546;52.184;5.596;2023-02-13T04:27:38;5.47;;;4.25;;
66633;SDS011;53546;52.184;5.596;2023-02-13T04:30:04;5.80;;;4.78;;
66633;SDS011;53546;52.184;5.596;2023-02-13T04:32:30;6.68;;;4.57;;
66633;SDS011;53546;52.184;5.596;2023-02-13T04:34:55;7.25;;;4.38;;
66633;SDS011;53546;52.184;5.596;2023-02-13T04:37:20;4.85;;;4.15;;
66633;SDS011;53546;52.184;5.596;2023-02-13T04:39:46;5.45;;;4.50;;
66633;SDS011;53546;52.184;5.596;2023-02-13T04:42:11;5.28;;;4.22;;
66633;SDS011;53546;52.184;5.596;2023-02-13T04:44:36;5.80;;;4.70;;
66633;SDS011;53546;52.184;5.596;2023-02-13T04:47:02;5.32;;;4.38;;
66633;SDS011;53546;52.184;5.596;2023-02-13T04:49:27;4.60;;;4.07;;
66633;SDS011;53546;52.184;5.596;2023-02-13T04:51:52;7.20;;;4.10;;
66633;SDS011;53546;52.184;5.596;2023-02-13T04:54:18;7.53;;;4.30;;
66633;SDS011;53546;52.184;5.596;2023-02-13T04:56:43;5.53;;;4.15;;
66633;SDS011;53546;52.184;5.596;2023-02-13T04:59:09;4.43;;;4.03;;
66633;SDS011;53546;52.184;5.596;2023-02-13T05:01:34;4.97;;;4.15;;
66633;SDS011;53546;52.184;5.596;2023-02-13T05:04:00;5.35;;;4.43;;
66633;SDS011;53546;52.184;5.596;2023-02-13T05:06:26;5.30;;;4.47;;
66633;SDS011;53546;52.184;5.596;2023-02-13T05:08:51;5.40;;;4.10;;
66633;SDS011;53546;52.184;5.596;2023-02-13T05:11:16;5.05;;;3.67;;
66633;SDS011;53546;52.184;5.596;2023-02-13T05:13:42;7.43;;;4.32;;
66633;SDS011;53546;52.184;5.596;2023-02-13T05:16:07;6.50;;;4.15;;
66633;SDS011;53546;52.184;5.596;2023-02-13T05:18:33;5.00;;;4.00;;
66633;SDS011;53546;52.184;5.596;2023-02-13T05:20:58;5.63;;;4.50;;
66633;SDS011;53546;52.184;5.596;2023-02-13T05:23:42;7.13;;;4.60;;
66633;SDS011;53546;52.184;5.596;2023-02-13T05:26:07;6.32;;;4.45;;
66633;SDS011;53546;52.184;5.596;2023-02-13T05:28:32;7.07;;;4.22;;
66633;SDS011;53546;52.184;5.596;2023-02-13T05:31:16;6.47;;;3.70;;
66633;SDS011;53546;52.184;5.596;2023-02-13T05:33:42;5.25;;;4.00;;
66633;SDS011;53546;52.184;5.596;2023-02-13T05:36:07;5.88;;;4.13;;
66633;SDS011;53546;52.184;5.596;2023-02-13T05:38:33;6.18;;;4.50;;
66633;SDS011;53546;52.184;5.596;2023-02-13T05:40:59;7.35;;;3.95;;
66633;SDS011;53546;52.184;5.596;2023-02-13T05:43:25;5.63;;;3.90;;
66633;SDS011;53546;52.184;5.596;2023-02-13T05:45:51;5.50;;;4.22;;
66633;SDS011;53546;52.184;5.596;2023-02-13T05:48:25;8.43;;;4.22;;
66633;SDS011;53546;52.184;5.596;2023-02-13T05:50:50;7.88;;;4.45;;
66633;SDS011;53546;52.184;5.596;2023-02-13T05:53:16;5.57;;;4.60;;
66633;SDS011;53546;52.184;5.596;2023-02-13T05:55:41;10.82;;;4.25;;
66633;SDS011;53546;52.184;5.596;2023-02-13T05:58:06;7.30;;;4.47;;
66633;SDS011;53546;52.184;5.596;2023-02-13T06:00:33;5.60;;;4.00;;
66633;SDS011;53546;52.184;5.596;2023-02-13T06:02:58;7.50;;;4.70;;
66633;SDS011;53546;52.184;5.596;2023-02-13T06:05:24;6.90;;;3.97;;
66633;SDS011;53546;52.184;5.596;2023-02-13T06:07:49;8.43;;;4.40;;
66633;SDS011;53546;52.184;5.596;2023-02-13T06:10:15;9.63;;;4.78;;
66633;SDS011;53546;52.184;5.596;2023-02-13T06:12:41;10.30;;;5.13;;
66633;SDS011;53546;52.184;5.596;2023-02-13T06:15:07;8.45;;;4.90;;
66633;SDS011;53546;52.184;5.596;2023-02-13T06:17:32;13.18;;;5.00;;
66633;SDS011;53546;52.184;5.596;2023-02-13T06:19:58;9.27;;;4.75;;
66633;SDS011;53546;52.184;5.596;2023-02-13T06:22:23;6.95;;;4.78;;
66633;SDS011;53546;52.184;5.596;2023-02-13T06:24:48;9.77;;;4.72;;
66633;SDS011;53546;52.184;5.596;2023-02-13T06:27:14;7.88;;;4.75;;
66633;SDS011;53546;52.184;5.596;2023-02-13T06:29:39;10.68;;;4.97;;
66633;SDS011;53546;52.184;5.596;2023-02-13T06:32:05;9.73;;;5.57;;
66633;SDS011;53546;52.184;5.596;2023-02-13T06:34:30;8.82;;;4.90;;
66633;SDS011;53546;52.184;5.596;2023-02-13T06:36:55;6.15;;;4.70;;
66633;SDS011;53546;52.184;5.596;2023-02-13T06:39:21;6.60;;;4.82;;
66633;SDS011;53546;52.184;5.596;2023-02-13T06:41:46;8.60;;;4.88;;
66633;SDS011;53546;52.184;5.596;2023-02-13T06:44:11;8.55;;;4.85;;
66633;SDS011;53546;52.184;5.596;2023-02-13T06:46:37;7.28;;;5.13;;
66633;SDS011;53546;52.184;5.596;2023-02-13T06:49:02;7.78;;;5.00;;
66633;SDS011;53546;52.184;5.596;2023-02-13T06:51:27;6.28;;;4.47;;
66633;SDS011;53546;52.184;5.596;2023-02-13T06:53:53;6.65;;;4.75;;
66633;SDS011;53546;52.184;5.596;2023-02-13T06:56:18;7.15;;;4.93;;
66633;SDS011;53546;52.184;5.596;2023-02-13T06:58:43;9.45;;;4.90;;
66633;SDS011;53546;52.184;5.596;2023-02-13T07:01:10;7.93;;;5.18;;
66633;SDS011;53546;52.184;5.596;2023-02-13T07:03:35;6.55;;;5.00;;
66633;SDS011;53546;52.184;5.596;2023-02-13T07:06:01;6.32;;;4.95;;
66633;SDS011;53546;52.184;5.596;2023-02-13T07:08:26;10.57;;;5.18;;
66633;SDS011;53546;52.184;5.596;2023-02-13T07:10:51;7.43;;;4.78;;
66633;SDS011;53546;52.184;5.596;2023-02-13T07:13:17;10.65;;;5.72;;
66633;SDS011;53546;52.184;5.596;2023-02-13T07:15:42;7.35;;;5.10;;
66633;SDS011;53546;52.184;5.596;2023-02-13T07:18:08;6.53;;;5.25;;
66633;SDS011;53546;52.184;5.596;2023-02-13T07:20:33;6.22;;;4.97;;
66633;SDS011;53546;52.184;5.596;2023-02-13T07:23:00;5.60;;;4.55;;
66633;SDS011;53546;52.184;5.596;2023-02-13T07:25:26;6.13;;;4.80;;
66633;SDS011;53546;52.184;5.596;2023-02-13T07:27:52;6.72;;;4.75;;
66633;SDS011;53546;52.184;5.596;2023-02-13T07:30:17;6.40;;;4.88;;
66633;SDS011;53546;52.184;5.596;2023-02-13T07:32:43;8.38;;;4.95;;
66633;SDS011;53546;52.184;5.596;2023-02-13T07:35:08;6.28;;;4.43;;
66633;SDS011;53546;52.184;5.596;2023-02-13T07:37:34;6.68;;;5.13;;
66633;SDS011;53546;52.184;5.596;2023-02-13T07:39:59;5.93;;;4.63;;
66633;SDS011;53546;52.184;5.596;2023-02-13T07:42:25;5.10;;;4.22;;
66633;SDS011;53546;52.184;5.596;2023-02-13T07:44:50;7.78;;;4.93;;
66633;SDS011;53546;52.184;5.596;2023-02-13T07:47:16;5.72;;;4.43;;
66633;SDS011;53546;52.184;5.596;2023-02-13T07:49:41;6.28;;;5.03;;
66633;SDS011;53546;52.184;5.596;2023-02-13T07:52:07;5.95;;;4.60;;
66633;SDS011;53546;52.184;5.596;2023-02-13T07:54:33;6.18;;;4.65;;
66633;SDS011;53546;52.184;5.596;2023-02-13T07:56:58;6.72;;;4.82;;
66633;SDS011;53546;52.184;5.596;2023-02-13T07:59:23;6.35;;;5.22;;
66633;SDS011;53546;52.184;5.596;2023-02-13T08:01:49;8.40;;;4.97;;
66633;SDS011;53546;52.184;5.596;2023-02-13T08:04:14;7.00;;;5.13;;
66633;SDS011;53546;52.184;5.596;2023-02-13T08:06:40;6.50;;;4.47;;
66633;SDS011;53546;52.184;5.596;2023-02-13T08:09:06;6.32;;;4.57;;
66633;SDS011;53546;52.184;5.596;2023-02-13T08:11:51;8.73;;;4.82;;
66633;SDS011;53546;52.184;5.596;2023-02-13T08:14:17;5.68;;;4.40;;
66633;SDS011;53546;52.184;5.596;2023-02-13T08:16:43;5.63;;;4.38;;
66633;SDS011;53546;52.184;5.596;2023-02-13T08:19:08;6.40;;;4.65;;
66633;SDS011;53546;52.184;5.596;2023-02-13T08:21:33;5.90;;;4.40;;
66633;SDS011;53546;52.184;5.596;2023-02-13T08:24:00;5.78;;;4.32;;
66633;SDS011;53546;52.184;5.596;2023-02-13T08:26:26;6.18;;;4.72;;
66633;SDS011;53546;52.184;5.596;2023-02-13T08:28:51;6.68;;;4.18;;
66633;SDS011;53546;52.184;5.596;2023-02-13T08:31:16;5.32;;;4.15;;
66633;SDS011;53546;52.184;5.596;2023-02-13T08:33:42;6.22;;;4.70;;
66633;SDS011;53546;52.184;5.596;2023-02-13T08:36:07;5.70;;;4.10;;
66633;SDS011;53546;52.184;5.596;2023-02-13T08:38:33;4.68;;;3.80;;
66633;SDS011;53546;52.184;5.596;2023-02-13T08:40:58;6.47;;;4.03;;
66633;SDS011;53546;52.184;5.596;2023-02-13T08:43:24;5.95;;;3.80;;
66633;SDS011;53546;52.184;5.596;2023-02-13T08:45:50;6.40;;;4.10;;
66633;SDS011;53546;52.184;5.596;2023-02-13T08:48:15;6.80;;;4.28;;
66633;SDS011;53546;52.184;5.596;2023-02-13T08:50:49;5.38;;;3.72;;
66633;SDS011;53546;52.184;5.596;2023-02-13T08:53:15;6.70;;;3.85;;
66633;SDS011;53546;52.184;5.596;2023-02-13T08:55:40;5.90;;;3.60;;
66633;SDS011;53546;52.184;5.596;2023-02-13T08:58:06;7.03;;;3.85;;
66633;SDS011;53546;52.184;5.596;2023-02-13T09:00:31;4.40;;;3.97;;
66633;SDS011;53546;52.184;5.596;2023-02-13T09:03:00;6.30;;;3.88;;
66633;SDS011;53546;52.184;5.596;2023-02-13T09:05:27;4.53;;;3.80;;
66633;SDS011;53546;52.184;5.596;2023-02-13T09:07:52;4.13;;;3.67;;
66633;SDS011;53546;52.184;5.596;2023-02-13T09:10:18;5.53;;;4.25;;
66633;SDS011;53546;52.184;5.596;2023-02-13T09:12:43;4.53;;;3.83;;
66633;SDS011;53546;52.184;5.596;2023-02-13T09:15:09;4.47;;;3.50;;
66633;SDS011;53546;52.184;5.596;2023-02-13T09:17:34;5.82;;;4.13;;
66633;SDS011;53546;52.184;5.596;2023-02-13T09:20:00;4.70;;;3.80;;
66633;SDS011;53546;52.184;5.596;2023-02-13T09:22:25;5.90;;;3.90;;
66633;SDS011;53546;52.184;5.596;2023-02-13T09:24:51;4.85;;;3.67;;
66633;SDS011;53546;52.184;5.596;2023-02-13T09:27:16;4.93;;;3.63;;
66633;SDS011;53546;52.184;5.596;2023-02-13T09:29:41;6.35;;;3.97;;
66633;SDS011;53546;52.184;5.596;2023-02-13T09:32:07;5.63;;;3.80;;
66633;SDS011;53546;52.184;5.596;2023-02-13T09:34:32;4.28;;;3.88;;
66633;SDS011;53546;52.184;5.596;2023-02-13T09:36:58;4.90;;;3.63;;
66633;SDS011;53546;52.184;5.596;2023-02-13T09:39:23;5.22;;;3.25;;
66633;SDS011;53546;52.184;5.596;2023-02-13T09:41:49;4.75;;;3.83;;
66633;SDS011;53546;52.184;5.596;2023-02-13T09:47:26;4.57;;;3.60;;
66633;SDS011;53546;52.184;5.596;2023-02-13T09:52:47;4.55;;;3.75;;
66633;SDS011;53546;52.184;5.596;2023-02-13T09:55:16;5.85;;;3.63;;
66633;SDS011;53546;52.184;5.596;2023-02-13T10:11:23;3.90;;;3.50;;
66633;SDS011;53546;52.184;5.596;2023-02-13T10:14:17;4.88;;;3.50;;
66633;SDS011;53546;52.184;5.596;2023-02-13T10:16:56;6.95;;;3.45;;
66633;SDS011;53546;52.184;5.596;2023-02-13T10:22:04;4.78;;;3.47;;
66633;SDS011;53546;52.184;5.596;2023-02-13T10:27:03;4.45;;;3.50;;
66633;SDS011;53546;52.184;5.596;2023-02-13T10:29:56;4.53;;;3.45;;
66633;SDS011;53546;52.184;5.596;2023-02-13T10:32:53;3.88;;;3.20;;
66633;SDS011;53546;52.184;5.596;2023-02-13T10:38:36;4.10;;;3.53;;
66633;SDS011;53546;52.184;5.596;2023-02-13T10:41:24;3.78;;;3.17;;
66633;SDS011;53546;52.184;5.596;2023-02-13T10:46:36;4.13;;;3.22;;
66633;SDS011;53546;52.184;5.596;2023-02-13T10:54:26;5.28;;;3.15;;
66633;SDS011;53546;52.184;5.596;2023-02-13T11:00:16;3.80;;;3.15;;
66633;SDS011;53546;52.184;5.596;2023-02-13T11:02:46;3.83;;;3.42;;
66633;SDS011;53546;52.184;5.596;2023-02-13T11:05:16;3.90;;;3.38;;
66633;SDS011;53546;52.184;5.596;2023-02-13T11:07:46;3.83;;;3.20;;
66633;SDS011;53546;52.184;5.596;2023-02-13T11:10:20;4.43;;;3.30;;
66633;SDS011;53546;52.184;5.596;2023-02-13T11:12:47;3.40;;;3.10;;
66633;SDS011;53546;52.184;5.596;2023-02-13T11:15:23;4.18;;;3.30;;
66633;SDS011;53546;52.184;5.596;2023-02-13T11:17:52;3.90;;;3.10;;
66633;SDS011;53546;52.184;5.596;2023-02-13T11:22:55;3.88;;;3.35;;
66633;SDS011;53546;52.184;5.596;2023-02-13T11:25:22;3.63;;;3.20;;
66633;SDS011;53546;52.184;5.596;2023-02-13T11:27:50;3.88;;;3.35;;
66633;SDS011;53546;52.184;5.596;2023-02-13T11:35:44;3.70;;;2.97;;
66633;SDS011;53546;52.184;5.596;2023-02-13T11:40:43;4.60;;;3.28;;
66633;SDS011;53546;52.184;5.596;2023-02-13T11:43:19;3.15;;;2.85;;
66633;SDS011;53546;52.184;5.596;2023-02-13T11:45:59;3.42;;;2.97;;
66633;SDS011;53546;52.184;5.596;2023-02-13T11:48:46;3.40;;;3.05;;
66633;SDS011;53546;52.184;5.596;2023-02-13T11:54:04;3.80;;;3.13;;
66633;SDS011;53546;52.184;5.596;2023-02-13T11:56:45;3.22;;;2.92;;
66633;SDS011;53546;52.184;5.596;2023-02-13T11:59:13;4.05;;;3.17;;
66633;SDS011;53546;52.184;5.596;2023-02-13T12:01:38;4.20;;;2.95;;
66633;SDS011;53546;52.184;5.596;2023-02-13T12:04:05;3.55;;;3.13;;
66633;SDS011;53546;52.184;5.596;2023-02-13T12:06:32;3.95;;;3.38;;
66633;SDS011;53546;52.184;5.596;2023-02-13T12:09:04;3.33;;;2.95;;
66633;SDS011;53546;52.184;5.596;2023-02-13T12:11:35;3.75;;;2.85;;
66633;SDS011;53546;52.184;5.596;2023-02-13T12:14:08;3.20;;;2.90;;
66633;SDS011;53546;52.184;5.596;2023-02-13T12:16:42;3.75;;;3.08;;
66633;SDS011;53546;52.184;5.596;2023-02-13T12:19:16;5.22;;;3.35;;
66633;SDS011;53546;52.184;5.596;2023-02-13T12:27:18;3.38;;;3.08;;
66633;SDS011;53546;52.184;5.596;2023-02-13T12:47:14;3.50;;;3.13;;
66633;SDS011;53546;52.184;5.596;2023-02-13T13:08:32;3.22;;;2.92;;
66633;SDS011;53546;52.184;5.596;2023-02-13T13:11:23;3.35;;;2.97;;
66633;SDS011;53546;52.184;5.596;2023-02-13T13:14:10;3.65;;;2.70;;
66633;SDS011;53546;52.184;5.596;2023-02-13T13:27:43;2.63;;;2.35;;
66633;SDS011;53546;52.184;5.596;2023-02-13T13:30:15;2.90;;;2.60;;
66633;SDS011;53546;52.184;5.596;2023-02-13T13:32:43;2.88;;;2.58;;
66633;SDS011;53546;52.184;5.596;2023-02-13T13:35:13;2.85;;;2.47;;
66633;SDS011;53546;52.184;5.596;2023-02-13T13:38:03;3.15;;;2.85;;
66633;SDS011;53546;52.184;5.596;2023-02-13T13:40:30;3.20;;;2.88;;
66633;SDS011;53546;52.184;5.596;2023-02-13T13:43:02;3.35;;;2.90;;
66633;SDS011;53546;52.184;5.596;2023-02-13T13:51:22;2.65;;;2.45;;
66633;SDS011;53546;52.184;5.596;2023-02-13T13:59:17;7.38;;;3.00;;
66633;SDS011;53546;52.184;5.596;2023-02-13T14:01:43;2.95;;;2.60;;
66633;SDS011;53546;52.184;5.596;2023-02-13T14:11:50;2.67;;;2.47;;
66633;SDS011;53546;52.184;5.596;2023-02-13T14:16:55;3.08;;;2.70;;
66633;SDS011;53546;52.184;5.596;2023-02-13T14:27:19;3.42;;;3.00;;
66633;SDS011;53546;52.184;5.596;2023-02-13T14:29:49;2.97;;;2.67;;
66633;SDS011;53546;52.184;5.596;2023-02-13T14:32:22;3.28;;;2.65;;
66633;SDS011;53546;52.184;5.596;2023-02-13T14:35:04;3.17;;;2.83;;
66633;SDS011;53546;52.184;5.596;2023-02-13T14:37:47;3.60;;;3.00;;
66633;SDS011;53546;52.184;5.596;2023-02-13T14:42:42;3.10;;;2.80;;
66633;SDS011;53546;52.184;5.596;2023-02-13T14:45:12;3.13;;;2.78;;
66633;SDS011;53546;52.184;5.596;2023-02-13T14:47:44;3.00;;;2.70;;
66633;SDS011;53546;52.184;5.596;2023-02-13T14:50:17;3.00;;;2.70;;
66633;SDS011;53546;52.184;5.596;2023-02-13T14:52:46;3.40;;;2.70;;
66633;SDS011;53546;52.184;5.596;2023-02-13T14:57:42;3.60;;;2.90;;
66633;SDS011;53546;52.184;5.596;2023-02-13T15:00:17;3.05;;;2.70;;
66633;SDS011;53546;52.184;5.596;2023-02-13T15:05:32;2.70;;;2.33;;
66633;SDS011;53546;52.184;5.596;2023-02-13T15:08:07;3.63;;;2.83;;
66633;SDS011;53546;52.184;5.596;2023-02-13T15:10:41;3.15;;;2.75;;
66633;SDS011;53546;52.184;5.596;2023-02-13T15:13:21;3.10;;;2.80;;
66633;SDS011;53546;52.184;5.596;2023-02-13T15:15:55;3.00;;;2.70;;
66633;SDS011;53546;52.184;5.596;2023-02-13T15:18:36;3.58;;;2.70;;
66633;SDS011;53546;52.184;5.596;2023-02-13T15:21:19;2.97;;;2.63;;
66633;SDS011;53546;52.184;5.596;2023-02-13T15:23:49;2.50;;;2.30;;
66633;SDS011;53546;52.184;5.596;2023-02-13T15:26:19;2.53;;;2.20;;
66633;SDS011;53546;52.184;5.596;2023-02-13T15:28:57;2.90;;;2.55;;
66633;SDS011;53546;52.184;5.596;2023-02-13T15:31:24;2.95;;;2.65;;
66633;SDS011;53546;52.184;5.596;2023-02-13T15:33:54;3.03;;;2.40;;
66633;SDS011;53546;52.184;5.596;2023-02-13T15:36:23;2.88;;;2.60;;
66633;SDS011;53546;52.184;5.596;2023-02-13T15:38:57;3.67;;;2.45;;
66633;SDS011;53546;52.184;5.596;2023-02-13T15:41:30;4.65;;;2.75;;
66633;SDS011;53546;52.184;5.596;2023-02-13T15:44:06;4.05;;;2.80;;
66633;SDS011;53546;52.184;5.596;2023-02-13T15:46:33;3.00;;;2.60;;
66633;SDS011;53546;52.184;5.596;2023-02-13T15:49:11;2.92;;;2.55;;
66633;SDS011;53546;52.184;5.596;2023-02-13T15:51:40;4.43;;;2.42;;
66633;SDS011;53546;52.184;5.596;2023-02-13T15:54:07;3.15;;;2.70;;
66633;SDS011;53546;52.184;5.596;2023-02-13T15:56:53;3.75;;;2.97;;
66633;SDS011;53546;52.184;5.596;2023-02-13T15:59:20;3.00;;;2.70;;
66633;SDS011;53546;52.184;5.596;2023-02-13T16:01:46;2.70;;;2.50;;
66633;SDS011;53546;52.184;5.596;2023-02-13T16:04:12;6.10;;;2.70;;
66633;SDS011;53546;52.184;5.596;2023-02-13T16:06:41;3.88;;;2.65;;
66633;SDS011;53546;52.184;5.596;2023-02-13T16:09:20;9.00;;;2.80;;
66633;SDS011;53546;52.184;5.596;2023-02-13T16:11:48;3.40;;;2.80;;
66633;SDS011;53546;52.184;5.596;2023-02-13T16:14:20;3.25;;;2.80;;
66633;SDS011;53546;52.184;5.596;2023-02-13T16:17:06;3.05;;;2.75;;
66633;SDS011;53546;52.184;5.596;2023-02-13T16:19:44;4.15;;;3.17;;
66633;SDS011;53546;52.184;5.596;2023-02-13T16:30:21;6.15;;;3.60;;
66633;SDS011;53546;52.184;5.596;2023-02-13T16:33:38;6.22;;;4.13;;
66633;SDS011;53546;52.184;5.596;2023-02-13T16:36:15;6.25;;;4.10;;
66633;SDS011;53546;52.184;5.596;2023-02-13T16:43:56;4.00;;;3.60;;
66633;SDS011;53546;52.184;5.596;2023-02-13T16:51:29;3.90;;;3.25;;
66633;SDS011;53546;52.184;5.596;2023-02-13T16:56:36;4.90;;;3.85;;
66633;SDS011;53546;52.184;5.596;2023-02-13T16:59:26;5.20;;;4.15;;
66633;SDS011;53546;52.184;5.596;2023-02-13T17:12:55;6.85;;;4.82;;
66633;SDS011;53546;52.184;5.596;2023-02-13T17:15:23;6.15;;;5.13;;
66633;SDS011;53546;52.184;5.596;2023-02-13T17:17:49;7.47;;;4.82;;
66633;SDS011;53546;52.184;5.596;2023-02-13T17:20:16;6.00;;;5.10;;
66633;SDS011;53546;52.184;5.596;2023-02-13T17:22:48;5.80;;;4.90;;
66633;SDS011;53546;52.184;5.596;2023-02-13T17:25:16;6.63;;;4.88;;
66633;SDS011;53546;52.184;5.596;2023-02-13T17:27:46;9.25;;;5.47;;
66633;SDS011;53546;52.184;5.596;2023-02-13T17:30:12;6.28;;;5.07;;
66633;SDS011;53546;52.184;5.596;2023-02-13T17:32:39;8.02;;;4.95;;
66633;SDS011;53546;52.184;5.596;2023-02-13T17:35:05;9.05;;;5.00;;
66633;SDS011;53546;52.184;5.596;2023-02-13T17:37:30;6.15;;;4.88;;
66633;SDS011;53546;52.184;5.596;2023-02-13T17:39:56;8.00;;;4.75;;
66633;SDS011;53546;52.184;5.596;2023-02-13T17:42:26;7.15;;;4.68;;
66633;SDS011;53546;52.184;5.596;2023-02-13T17:44:53;11.93;;;5.20;;
66633;SDS011;53546;52.184;5.596;2023-02-13T17:47:20;8.50;;;4.63;;
66633;SDS011;53546;52.184;5.596;2023-02-13T17:49:45;8.05;;;4.68;;
66633;SDS011;53546;52.184;5.596;2023-02-13T17:52:16;5.75;;;4.40;;
66633;SDS011;53546;52.184;5.596;2023-02-13T17:54:44;6.68;;;4.65;;
66633;SDS011;53546;52.184;5.596;2023-02-13T17:57:10;5.28;;;4.38;;
66633;SDS011;53546;52.184;5.596;2023-02-13T17:59:39;8.25;;;4.93;;
66633;SDS011;53546;52.184;5.596;2023-02-13T18:02:15;6.55;;;4.50;;
66633;SDS011;53546;52.184;5.596;2023-02-13T18:04:42;7.80;;;4.40;;
66633;SDS011;53546;52.184;5.596;2023-02-13T18:07:09;7.85;;;5.00;;
66633;SDS011;53546;52.184;5.596;2023-02-13T18:09:35;11.45;;;5.40;;
66633;SDS011;53546;52.184;5.596;2023-02-13T18:12:00;6.80;;;4.55;;
66633;SDS011;53546;52.184;5.596;2023-02-13T18:14:28;7.82;;;4.60;;
66633;SDS011;53546;52.184;5.596;2023-02-13T18:16:54;5.90;;;4.15;;
66633;SDS011;53546;52.184;5.596;2023-02-13T18:19:20;6.93;;;4.15;;
66633;SDS011;53546;52.184;5.596;2023-02-13T18:21:45;4.60;;;4.15;;
66633;SDS011;53546;52.184;5.596;2023-02-13T18:24:10;5.03;;;4.20;;
66633;SDS011;53546;52.184;5.596;2023-02-13T18:26:36;5.57;;;4.00;;
66633;SDS011;53546;52.184;5.596;2023-02-13T18:29:01;5.13;;;4.35;;
66633;SDS011;53546;52.184;5.596;2023-02-13T18:31:27;6.18;;;4.53;;
66633;SDS011;53546;52.184;5.596;2023-02-13T18:33:53;6.50;;;4.57;;
66633;SDS011;53546;52.184;5.596;2023-02-13T18:36:19;5.35;;;4.05;;